createdAt,value
2022-11-15T00:04:38.948Z,6.40
2022-11-15T00:09:45.810Z,6.40
2022-11-15T00:14:49.718Z,6.40
2022-11-15T00:19:53.068Z,6.30
2022-11-15T00:24:56.565Z,6.20
2022-11-15T00:30:00.009Z,6.20
2022-11-15T00:35:04.698Z,6.20
2022-11-15T00:40:09.170Z,6.20
2022-11-15T00:45:12.494Z,6.10
2022-11-15T00:50:16.226Z,6.10
2022-11-15T00:55:20.957Z,6.10
2022-11-15T01:00:24.375Z,6.10
2022-11-15T01:05:27.923Z,6.00
2022-11-15T01:10:31.288Z,6.00
2022-11-15T01:15:34.621Z,5.90
2022-11-15T01:20:43.555Z,5.90
2022-11-15T01:25:46.618Z,5.90
2022-11-15T01:30:49.987Z,5.90
2022-11-15T01:35:53.368Z,5.80
2022-11-15T01:40:56.657Z,5.80
2022-11-15T01:46:25.192Z,5.80
2022-11-15T01:51:31.845Z,5.80
2022-11-15T01:56:42.407Z,5.70
2022-11-15T02:01:45.900Z,5.70
2022-11-15T02:06:50.540Z,5.70
2022-11-15T02:11:55.511Z,5.60
2022-11-15T02:17:35.112Z,5.60
2022-11-15T02:22:57.567Z,5.60
2022-11-15T02:28:52.165Z,5.70
2022-11-15T02:34:10.178Z,5.60
2022-11-15T02:39:35.089Z,5.70
2022-11-15T02:44:47.063Z,5.60
2022-11-15T02:49:53.827Z,5.60
2022-11-15T02:55:02.271Z,5.60
2022-11-15T03:00:15.971Z,5.60
2022-11-15T03:05:39.687Z,5.60
2022-11-15T03:11:13.272Z,5.60
2022-11-15T03:16:35.677Z,5.50
2022-11-15T03:21:41.816Z,5.50
2022-11-15T03:26:47.317Z,5.50
2022-11-15T03:31:59.057Z,5.50
2022-11-15T03:37:03.022Z,5.50
2022-11-15T03:42:30.577Z,5.60
2022-11-15T03:47:40.467Z,5.60
2022-11-15T03:52:46.360Z,5.60
2022-11-15T03:57:52.843Z,5.60
2022-11-15T04:02:56.356Z,5.70
2022-11-15T04:07:59.729Z,5.70
2022-11-15T04:13:04.589Z,5.70
2022-11-15T04:18:08.010Z,5.70
2022-11-15T04:23:36.248Z,5.70
2022-11-15T04:28:58.490Z,5.70
2022-11-15T04:34:01.948Z,5.70
2022-11-15T04:39:05.357Z,5.70
2022-11-15T04:44:08.788Z,5.70
2022-11-15T04:49:12.127Z,5.70
2022-11-15T04:54:15.476Z,5.70
2022-11-15T04:59:18.815Z,5.80
2022-11-15T05:09:55.795Z,5.70
2022-11-15T05:14:59.241Z,5.70
2022-11-15T05:20:02.320Z,5.80
2022-11-15T05:25:06.162Z,5.80
2022-11-15T05:30:10.098Z,5.80
2022-11-15T05:35:40.693Z,5.70
2022-11-15T05:40:44.131Z,5.80
2022-11-15T05:45:48.121Z,5.80
2022-11-15T05:50:51.791Z,5.80
2022-11-15T05:55:55.511Z,5.70
2022-11-15T06:00:59.583Z,5.80
2022-11-15T06:06:02.904Z,5.80
2022-11-15T06:11:08.129Z,5.80
2022-11-15T06:16:11.845Z,5.80
2022-11-15T06:21:15.220Z,5.80
2022-11-15T06:26:18.594Z,5.80
2022-11-15T06:31:22.122Z,5.80
2022-11-15T06:36:25.321Z,5.80
2022-11-15T06:41:28.852Z,5.80
2022-11-15T06:46:32.256Z,5.80
2022-11-15T06:51:35.309Z,5.80
2022-11-15T06:56:39.214Z,5.90
2022-11-15T07:01:42.327Z,5.90
2022-11-15T07:06:49.434Z,5.90
2022-11-15T07:11:53.031Z,5.90
2022-11-15T07:16:57.143Z,5.90
2022-11-15T07:22:00.613Z,5.90
2022-11-15T07:27:04.157Z,6.00
2022-11-15T07:32:07.470Z,6.00
2022-11-15T07:37:10.974Z,6.10
2022-11-15T07:42:33.386Z,6.10
2022-11-15T07:47:36.504Z,6.10
2022-11-15T07:52:40.253Z,6.10
2022-11-15T07:57:43.602Z,6.10
2022-11-15T08:02:47.410Z,6.10
2022-11-15T08:07:52.743Z,6.10
2022-11-15T08:13:04.845Z,6.10
2022-11-15T08:18:13.118Z,6.20
2022-11-15T08:23:16.381Z,6.20
2022-11-15T08:28:21.945Z,6.30
2022-11-15T08:33:26.253Z,6.30
2022-11-15T08:38:32.765Z,6.30
2022-11-15T08:43:36.689Z,6.30
2022-11-15T08:48:40.667Z,6.40
2022-11-15T08:53:45.222Z,6.40
2022-11-15T08:58:48.735Z,6.50
2022-11-15T09:03:52.673Z,6.50
2022-11-15T09:08:56.283Z,6.60
2022-11-15T09:14:00.061Z,6.50
2022-11-15T09:19:06.431Z,6.50
2022-11-15T09:24:16.663Z,6.50
2022-11-15T09:29:22.094Z,6.40
2022-11-15T09:34:25.555Z,6.40
2022-11-15T09:39:29.158Z,6.40
2022-11-15T09:44:44.706Z,6.40
2022-11-15T09:50:00.625Z,6.40
2022-11-15T09:55:04.321Z,6.50
2022-11-15T10:05:46.390Z,6.40
2022-11-15T10:11:09.706Z,6.30
2022-11-15T10:16:35.505Z,6.30
2022-11-15T10:21:53.229Z,6.30
2022-11-15T10:26:57.887Z,6.30
2022-11-15T10:32:01.299Z,6.40
2022-11-15T10:37:04.489Z,6.40
2022-11-15T10:42:29.221Z,6.50
2022-11-15T10:47:39.162Z,6.70
2022-11-15T10:52:48.445Z,6.70
2022-11-15T10:58:07.134Z,6.70
2022-11-15T11:03:36.053Z,6.80
2022-11-15T11:08:40.374Z,6.80
2022-11-15T11:13:43.746Z,6.60
2022-11-15T11:18:57.804Z,6.50
2022-11-15T11:24:27.395Z,6.40
2022-11-15T11:29:52.283Z,6.40
2022-11-15T11:35:08.593Z,6.40
2022-11-15T11:40:31.798Z,6.40
2022-11-15T11:45:38.050Z,6.40
2022-11-15T11:50:44.665Z,6.50
2022-11-15T11:55:53.484Z,6.50
2022-11-15T12:01:01.835Z,6.50
2022-11-15T12:06:20.994Z,6.60
2022-11-15T12:12:01.485Z,6.60
2022-11-15T12:17:05.217Z,6.70
2022-11-15T12:22:25.964Z,6.80
2022-11-15T12:27:50.358Z,6.90
2022-11-15T12:33:00.606Z,6.80
2022-11-15T12:38:04.455Z,6.60
2022-11-15T12:43:16.788Z,6.50
2022-11-15T12:48:19.881Z,6.50
2022-11-15T12:53:26.371Z,6.60
2022-11-15T12:58:44.421Z,6.70
2022-11-15T13:04:23.304Z,6.60
2022-11-15T13:09:36.401Z,6.60
2022-11-15T13:14:44.216Z,6.60
2022-11-15T13:20:00.835Z,6.60
2022-11-15T13:25:05.209Z,6.50
2022-11-15T13:30:17.906Z,6.40
2022-11-15T13:35:27.263Z,6.40
2022-11-15T13:40:36.795Z,6.30
2022-11-15T13:45:40.304Z,6.20
2022-11-15T13:50:44.083Z,6.10
2022-11-15T13:55:47.554Z,6.10
2022-11-15T14:01:04.342Z,6.10
2022-11-15T14:06:13.967Z,6.10
2022-11-15T14:11:20.736Z,6.10
2022-11-15T14:16:35.964Z,6.10
2022-11-15T14:21:39.019Z,6.10
2022-11-15T14:26:42.736Z,6.10
2022-11-15T14:31:48.267Z,6.00
2022-11-15T14:36:52.551Z,6.00
2022-11-15T14:41:55.975Z,6.00
2022-11-15T14:46:59.193Z,6.00
2022-11-15T14:52:02.435Z,6.00
2022-11-15T14:57:05.528Z,5.90
2022-11-15T15:02:24.417Z,5.90
2022-11-15T15:07:27.986Z,5.90
2022-11-15T15:12:31.655Z,6.00
2022-11-15T15:17:34.815Z,5.90
2022-11-15T15:22:39.061Z,5.90
2022-11-15T15:27:42.254Z,6.00
2022-11-15T15:32:45.900Z,6.00
2022-11-15T15:37:51.503Z,6.00
2022-11-15T15:42:55.464Z,6.00
2022-11-15T15:47:58.964Z,6.00
2022-11-15T15:53:04.895Z,6.00
2022-11-15T15:58:09.515Z,6.00
2022-11-15T16:03:12.983Z,5.90
2022-11-15T16:08:28.559Z,5.90
2022-11-15T16:13:36.124Z,5.90
2022-11-15T16:18:39.584Z,5.90
2022-11-15T16:23:43.787Z,5.90
2022-11-15T16:28:47.585Z,5.90
2022-11-15T16:33:51.634Z,5.80
2022-11-15T16:38:55.645Z,5.90
2022-11-15T16:43:59.465Z,5.80
2022-11-15T16:49:03.028Z,5.90
2022-11-15T16:54:06.832Z,5.90
2022-11-15T16:59:16.682Z,6.00
2022-11-15T17:04:23.490Z,6.00
2022-11-15T17:09:28.135Z,6.00
2022-11-15T17:14:32.737Z,5.90
2022-11-15T17:19:36.102Z,5.90
2022-11-15T17:24:40.774Z,6.00
2022-11-15T17:29:44.288Z,6.00
2022-11-15T17:34:48.139Z,6.00
2022-11-15T17:39:52.151Z,6.00
2022-11-15T17:44:57.403Z,6.00
2022-11-15T17:50:01.326Z,6.00
2022-11-15T17:55:05.128Z,6.10
2022-11-15T18:00:09.311Z,6.20
2022-11-15T18:05:15.937Z,6.10
2022-11-15T18:10:21.676Z,6.10
2022-11-15T18:15:25.907Z,6.10
2022-11-15T18:20:29.488Z,6.10
2022-11-15T18:25:33.384Z,6.10
2022-11-15T18:30:40.456Z,6.00
2022-11-15T18:35:49.336Z,6.00
2022-11-15T18:40:53.365Z,6.00
2022-11-15T18:46:02.246Z,6.00
2022-11-15T18:51:12.075Z,6.00
2022-11-15T18:56:20.762Z,6.00
2022-11-15T19:01:27.833Z,6.00
2022-11-15T19:06:33.198Z,5.90
2022-11-15T19:11:44.064Z,6.00
2022-11-15T19:16:55.848Z,6.00
2022-11-15T19:22:00.524Z,6.00
2022-11-15T19:27:06.145Z,6.00
2022-11-15T19:32:11.151Z,6.00
2022-11-15T19:37:16.480Z,5.90
2022-11-15T19:42:20.383Z,5.90
2022-11-15T19:47:25.243Z,5.90
2022-11-15T19:52:33.224Z,5.90
2022-11-15T19:57:41.481Z,5.80
2022-11-15T20:02:46.182Z,5.80
2022-11-15T20:07:51.306Z,5.70
2022-11-15T20:12:54.923Z,5.70
2022-11-15T20:17:58.293Z,5.60
2022-11-15T20:23:07.038Z,5.60
2022-11-15T20:28:20.943Z,5.60
2022-11-15T20:33:25.540Z,5.60
2022-11-15T20:38:32.249Z,5.60
2022-11-15T20:43:36.385Z,5.60
2022-11-15T20:48:40.661Z,5.40
2022-11-15T20:53:46.114Z,5.40
2022-11-15T20:58:53.596Z,5.40
2022-11-15T21:03:59.023Z,5.40
2022-11-15T21:09:21.113Z,5.40
2022-11-15T21:14:25.287Z,5.40
2022-11-15T21:19:35.648Z,5.40
2022-11-15T21:24:40.958Z,5.50
2022-11-15T21:29:46.095Z,5.50
2022-11-15T21:34:51.973Z,5.50
2022-11-15T21:39:56.254Z,5.50
2022-11-15T21:45:01.053Z,5.50
2022-11-15T21:50:04.539Z,5.50
2022-11-15T21:55:09.780Z,5.50
2022-11-15T22:00:34.312Z,5.60
2022-11-15T22:05:39.530Z,5.50
2022-11-15T22:10:48.381Z,5.60
2022-11-15T22:15:54.672Z,5.50
2022-11-15T22:21:00.147Z,5.60
2022-11-15T22:26:04.289Z,5.60
2022-11-15T22:31:08.540Z,5.60
2022-11-15T22:36:13.408Z,5.60
2022-11-15T22:41:17.012Z,5.60
2022-11-15T22:46:20.572Z,5.60
2022-11-15T22:51:24.030Z,5.70
2022-11-15T22:56:27.688Z,5.70
2022-11-15T23:01:31.051Z,5.70
2022-11-15T23:06:34.409Z,5.70
2022-11-15T23:11:56.049Z,5.70
2022-11-15T23:16:59.546Z,5.70
2022-11-15T23:22:21.346Z,5.70
2022-11-15T23:27:24.849Z,5.70
2022-11-15T23:32:46.770Z,5.70
2022-11-15T23:37:50.228Z,5.70
2022-11-15T23:42:53.688Z,5.70
2022-11-15T23:48:01.079Z,5.70
2022-11-15T23:53:05.917Z,5.60
2022-11-15T23:58:09.507Z,5.70
